Time;durP1;ratioP1;P1;durP2;ratioP2;P2;SDS_P1;SDS_P2;PMS_P1;PMS_P2;Temp;Humidity;BMP_temperature;BMP_pressure;BME280_temperature;BME280_humidity;BME280_pressure;Samples;Min_cycle;Max_cycle;Signal;HPM_P1;HPM_P2
2024/04/23 00:01:53;;;;;;;6.82;5.70;;;;;;;4.03;74.19;92302.09;2027800;70;20203;-70
2024/04/23 00:04:19;;;;;;;7.72;5.57;;;;;;;4.12;73.80;92297.13;2027232;70;20149;-71
2024/04/23 00:06:55;;;;;;;7.28;5.57;;;;;;;4.10;74.01;92294.94;2027834;70;20172;-71
2024/04/23 00:09:22;;;;;;;7.18;5.65;;;;;;;3.93;74.13;92286.63;2027823;70;20147;-70
2024/04/23 00:11:49;;;;;;;8.60;6.63;;;;;;;3.34;76.76;92293.13;2027891;70;20589;-74
2024/04/23 00:14:14;;;;;;;8.13;6.53;;;;;;;3.60;75.46;92288.94;2027618;70;20267;-72
2024/04/23 00:16:40;;;;;;;8.48;6.30;;;;;;;3.60;75.15;92295.22;2027262;70;20160;-70
2024/04/23 00:19:06;;;;;;;8.88;6.57;;;;;;;3.36;77.11;92299.59;2027536;70;20221;-70
2024/04/23 00:21:32;;;;;;;8.65;6.72;;;;;;;3.37;77.17;92289.19;2027526;70;20144;-70
2024/04/23 00:23:58;;;;;;;8.30;6.70;;;;;;;3.52;76.79;92280.66;2027531;70;20187;-73
2024/04/23 00:26:23;;;;;;;8.73;6.63;;;;;;;3.90;74.96;92287.81;2027425;70;20177;-68
2024/04/23 00:28:49;;;;;;;8.88;6.78;;;;;;;3.88;75.17;92282.06;2027318;70;20172;-72
2024/04/23 00:31:15;;;;;;;8.43;6.90;;;;;;;3.24;76.89;92268.00;2026836;70;20144;-75
2024/04/23 00:33:40;;;;;;;8.75;6.85;;;;;;;3.59;76.73;92268.72;2027513;70;20180;-71
2024/04/23 00:36:06;;;;;;;7.97;6.13;;;;;;;3.66;76.48;92253.94;2028252;70;20243;-69
2024/04/23 00:38:34;;;;;;;8.02;6.60;;;;;;;3.45;77.18;92265.53;2027861;70;20157;-72
2024/04/23 00:41:00;;;;;;;8.85;6.97;;;;;;;3.75;76.63;92258.81;2027332;70;20611;-71
2024/04/23 00:43:26;;;;;;;8.00;6.47;;;;;;;3.79;74.97;92244.50;2027272;70;20255;-72
2024/04/23 00:45:58;;;;;;;10.05;6.47;;;;;;;3.89;75.52;92258.47;2027483;70;20234;-71
2024/04/23 00:48:24;;;;;;;8.57;6.68;;;;;;;3.81;75.77;92256.53;2027789;70;20151;-71
2024/04/23 00:50:51;;;;;;;8.90;6.93;;;;;;;3.59;76.47;92252.00;2028165;70;20136;-71
2024/04/23 00:53:17;;;;;;;9.77;6.95;;;;;;;3.33;77.82;92236.00;2028699;70;20149;-71
2024/04/23 00:55:44;;;;;;;9.27;7.30;;;;;;;3.27;78.53;92239.06;2028725;70;20171;-70
2024/04/23 00:58:10;;;;;;;9.75;6.93;;;;;;;3.36;78.45;92223.75;2028387;70;20167;-71
2024/04/23 01:00:36;;;;;;;9.45;7.07;;;;;;;2.99;79.55;92229.91;2028174;70;20168;-69
2024/04/23 01:03:02;;;;;;;8.73;7.10;;;;;;;3.39;78.57;92220.53;2027996;70;20578;-74
2024/04/23 01:05:29;;;;;;;8.45;6.57;;;;;;;3.67;77.26;92222.03;2028410;70;20176;-71
2024/04/23 01:07:54;;;;;;;8.40;6.63;;;;;;;3.38;77.56;92224.63;2028513;70;20367;-70
2024/04/23 01:10:20;;;;;;;9.63;6.82;;;;;;;3.42;77.53;92227.72;2028545;70;20151;-74
2024/04/23 01:12:46;;;;;;;8.00;6.22;;;;;;;3.62;76.92;92225.06;2028432;70;20581;-73
2024/04/23 01:15:14;;;;;;;9.52;7.03;;;;;;;3.63;77.25;92232.84;2028404;70;20165;-73
2024/04/23 01:17:40;;;;;;;7.78;6.50;;;;;;;3.68;76.42;92226.28;2028585;70;20190;-74
2024/04/23 01:20:08;;;;;;;8.50;6.35;;;;;;;3.70;75.92;92228.47;2028370;70;20529;-73
2024/04/23 01:22:42;;;;;;;8.10;6.20;;;;;;;3.80;75.38;92224.44;2025091;70;20636;-70
2024/04/23 01:25:15;;;;;;;8.20;6.50;;;;;;;3.48;75.90;92205.97;2028358;70;20240;-70
2024/04/23 01:27:43;;;;;;;9.07;6.80;;;;;;;3.84;74.88;92218.44;2024793;70;20145;-70
2024/04/23 01:30:11;;;;;;;9.65;7.30;;;;;;;3.19;78.22;92221.72;2028127;70;20574;-68
2024/04/23 01:32:39;;;;;;;9.40;7.28;;;;;;;3.66;76.31;92220.53;2028544;70;20667;-69
2024/04/23 01:35:08;;;;;;;9.60;7.28;;;;;;;3.66;76.11;92217.03;2028486;70;20208;-70
2024/04/23 01:37:35;;;;;;;9.38;7.35;;;;;;;3.27;78.04;92220.31;2028496;70;20170;-71
2024/04/23 01:40:04;;;;;;;9.40;7.43;;;;;;;3.09;79.27;92232.03;2027498;70;20141;-70
2024/04/23 01:42:30;;;;;;;10.55;7.28;;;;;;;2.83;80.99;92216.75;2028335;70;20176;-71
2024/04/23 01:44:58;;;;;;;9.55;7.35;;;;;;;3.14;79.79;92222.69;2027590;70;20176;-70
2024/04/23 01:47:25;;;;;;;11.13;8.02;;;;;;;2.64;81.66;92220.81;2028499;70;20631;-70
2024/04/23 01:49:54;;;;;;;11.13;8.00;;;;;;;2.86;81.92;92221.16;2028456;70;20148;-72
2024/04/23 01:52:21;;;;;;;10.73;7.95;;;;;;;2.86;81.61;92201.72;2028574;70;20160;-70
2024/04/23 01:54:47;;;;;;;10.93;8.05;;;;;;;3.06;80.96;92217.22;2028582;70;20149;-72
2024/04/23 01:57:14;;;;;;;10.68;7.95;;;;;;;3.08;80.88;92209.06;2028347;70;20213;-74
2024/04/23 01:59:46;;;;;;;11.43;8.35;;;;;;;3.19;80.14;92191.13;2028269;70;20184;-70
2024/04/23 02:02:12;;;;;;;10.15;7.82;;;;;;;3.37;79.28;92198.13;2028048;70;20261;-71
2024/04/23 02:04:39;;;;;;;10.65;7.88;;;;;;;3.34;78.63;92198.53;2028574;70;20153;-73
2024/04/23 02:07:06;;;;;;;10.82;7.78;;;;;;;3.02;80.23;92203.00;2028477;70;20636;-72
2024/04/23 02:09:33;;;;;;;9.18;7.07;;;;;;;3.25;79.26;92199.94;2025104;70;20237;-71
2024/04/23 02:12:03;;;;;;;11.02;8.20;;;;;;;3.49;78.23;92198.34;2028293;70;20145;-71
2024/04/23 02:14:29;;;;;;;11.50;7.90;;;;;;;2.94;79.19;92197.53;2024905;70;20152;-70
2024/04/23 02:16:55;;;;;;;11.35;8.07;;;;;;;3.39;78.16;92198.28;2028224;70;20336;-74
2024/04/23 02:19:22;;;;;;;10.60;7.78;;;;;;;3.54;77.72;92202.91;2028178;70;20159;-72
2024/04/23 02:21:47;;;;;;;10.52;8.07;;;;;;;3.58;77.67;92192.09;2028489;70;20494;-72
2024/04/23 02:24:13;;;;;;;9.73;7.53;;;;;;;3.60;77.30;92199.84;2028241;70;20164;-74
2024/04/23 02:26:38;;;;;;;10.60;7.68;;;;;;;3.30;78.33;92180.22;2028443;70;20153;-72
2024/04/23 02:29:04;;;;;;;11.27;7.88;;;;;;;3.55;77.60;92188.41;2028393;70;20258;-73
2024/04/23 02:31:30;;;;;;;9.82;7.68;;;;;;;3.59;77.34;92190.78;2028318;70;20559;-72
2024/04/23 02:33:55;;;;;;;9.48;7.30;;;;;;;3.47;77.12;92178.69;2027941;70;20168;-70
2024/04/23 02:36:21;;;;;;;9.55;7.18;;;;;;;3.60;77.40;92185.94;2024777;70;20232;-70
2024/04/23 02:38:46;;;;;;;11.27;7.85;;;;;;;3.60;77.04;92177.59;2027435;70;20654;-72
2024/04/23 02:41:12;;;;;;;10.07;7.50;;;;;;;3.68;77.29;92178.22;2024714;70;20610;-71
2024/04/23 02:43:37;;;;;;;10.15;7.82;;;;;;;3.32;78.64;92187.97;2028156;70;20165;-70
2024/04/23 02:46:03;;;;;;;11.52;8.77;;;;;;;3.25;78.88;92186.78;2027951;70;20602;-70
2024/04/23 02:48:29;;;;;;;11.93;8.73;;;;;;;3.35;78.74;92186.84;2028150;70;20149;-72
2024/04/23 02:50:54;;;;;;;10.63;8.55;;;;;;;3.27;78.99;92186.19;2028058;70;20203;-69
2024/04/23 02:53:20;;;;;;;11.73;8.20;;;;;;;2.96;80.27;92177.50;2028083;70;20576;-70
2024/04/23 02:55:45;;;;;;;11.77;8.48;;;;;;;3.32;78.80;92176.84;2028055;70;20176;-72
2024/04/23 02:58:11;;;;;;;10.35;8.15;;;;;;;3.53;78.18;92174.34;2028048;70;20598;-71
2024/04/23 03:00:38;;;;;;;10.30;7.95;;;;;;;3.65;78.14;92180.09;2024463;70;20140;-72
2024/04/23 03:03:04;;;;;;;11.02;8.02;;;;;;;3.72;77.25;92170.91;2028063;70;20157;-75
2024/04/23 03:05:30;;;;;;;10.98;7.88;;;;;;;3.67;77.25;92177.50;2027918;70;20136;-74
2024/04/23 03:07:56;;;;;;;11.00;7.85;;;;;;;3.34;78.12;92176.25;2024361;70;20160;-70
2024/04/23 03:10:21;;;;;;;10.05;7.80;;;;;;;3.53;77.87;92168.78;2028356;70;20141;-73
2024/04/23 03:12:47;;;;;;;12.98;8.32;;;;;;;3.63;77.46;92168.09;2027190;70;20506;-71
2024/04/23 03:15:14;;;;;;;9.02;7.13;;;;;;;3.77;76.83;92167.13;2028241;70;20148;-75
2024/04/23 03:17:39;;;;;;;9.68;7.47;;;;;;;3.75;75.89;92169.75;2028268;70;20261;-72
2024/04/23 03:20:06;;;;;;;9.77;7.68;;;;;;;3.51;76.88;92165.09;2024790;70;20267;-69
2024/04/23 03:22:31;;;;;;;11.85;8.40;;;;;;;2.96;80.13;92160.81;2028201;70;20152;-70
2024/04/23 03:24:57;;;;;;;10.13;7.93;;;;;;;3.31;79.15;92155.91;2028482;70;20148;-73
2024/04/23 03:27:22;;;;;;;10.38;7.57;;;;;;;3.24;78.69;92156.75;2028499;70;20153;-74
2024/04/23 03:29:48;;;;;;;10.60;7.82;;;;;;;3.14;79.00;92145.56;2028233;70;20597;-72
2024/04/23 03:32:13;;;;;;;10.32;6.95;;;;;;;3.43;78.15;92156.09;2028219;70;20217;-72
2024/04/23 03:34:39;;;;;;;10.10;7.53;;;;;;;3.51;77.84;92154.69;2028171;70;20184;-72
2024/04/23 03:37:04;;;;;;;11.27;7.63;;;;;;;3.26;78.54;92151.34;2024712;70;20168;-70
2024/04/23 03:39:31;;;;;;;9.80;7.53;;;;;;;3.42;77.82;92152.59;2028073;70;20594;-72
2024/04/23 03:41:58;;;;;;;10.60;7.90;;;;;;;3.22;78.51;92151.75;2028273;70;20182;-71
2024/04/23 03:44:25;;;;;;;11.00;8.05;;;;;;;2.96;79.85;92153.19;2028228;70;20152;-71
2024/04/23 03:46:51;;;;;;;10.20;8.02;;;;;;;3.30;78.77;92152.41;2028050;70;20156;-70
2024/04/23 03:49:17;;;;;;;11.90;7.85;;;;;;;3.30;78.09;92132.19;2028184;70;20187;-70
2024/04/23 03:51:42;;;;;;;9.65;7.40;;;;;;;3.45;77.98;92143.09;2024626;70;20200;-69
2024/04/23 03:54:08;;;;;;;10.82;7.63;;;;;;;3.56;77.36;92148.13;2027962;70;20153;-71
2024/04/23 03:56:34;;;;;;;10.70;7.38;;;;;;;3.55;77.40;92152.22;2028189;70;20144;-71
2024/04/23 03:58:59;;;;;;;9.63;7.07;;;;;;;3.65;76.88;92146.69;2028350;70;20224;-72
2024/04/23 04:01:25;;;;;;;10.77;7.65;;;;;;;3.50;77.32;92144.88;2027991;70;20164;-74
2024/04/23 04:06:35;;;;;;;13.52;9.70;;;;;;;2.97;80.09;92151.16;2028451;70;20168;-72
2024/04/23 04:09:00;;;;;;;14.05;9.90;;;;;;;2.93;81.24;92145.25;2028482;70;20145;-72
2024/04/23 04:11:31;;;;;;;12.98;9.35;;;;;;;3.07;80.71;92149.19;2028426;70;20157;-73
2024/04/23 04:13:58;;;;;;;11.85;8.80;;;;;;;3.17;79.44;92144.41;2028172;70;20471;-74
2024/04/23 04:16:25;;;;;;;12.40;8.90;;;;;;;3.15;79.87;92149.81;2028078;70;20275;-72
2024/04/23 04:18:52;;;;;;;11.85;8.82;;;;;;;2.86;81.04;92141.28;2024870;70;20195;-70
2024/04/23 04:21:20;;;;;;;12.82;9.40;;;;;;;2.91;81.16;92134.00;2028317;70;20144;-70
2024/04/23 04:23:45;;;;;;;12.93;9.32;;;;;;;2.64;81.63;92143.00;2028358;70;20172;-70
2024/04/23 04:26:13;;;;;;;13.80;9.82;;;;;;;2.56;81.59;92139.56;2028232;70;20189;-70
2024/04/23 04:28:42;;;;;;;14.13;9.05;;;;;;;2.73;82.34;92142.34;2028380;70;20164;-71
2024/04/23 04:31:08;;;;;;;15.13;9.10;;;;;;;2.58;82.88;92142.53;2027970;70;20179;-70
2024/04/23 04:33:34;;;;;;;11.35;8.80;;;;;;;2.59;81.80;92132.16;2028067;70;20480;-68
2024/04/23 04:36:00;;;;;;;13.52;9.18;;;;;;;2.84;82.34;92134.81;2028284;70;20152;-76
2024/04/23 04:38:26;;;;;;;12.32;9.10;;;;;;;3.14;80.72;92134.44;2028141;70;20149;-72
2024/04/23 04:40:52;;;;;;;13.43;9.25;;;;;;;3.18;80.15;92134.75;2024664;70;20178;-70
2024/04/23 04:43:17;;;;;;;12.45;9.07;;;;;;;3.01;80.29;92137.56;2027039;70;20204;-74
2024/04/23 04:45:43;;;;;;;13.32;9.52;;;;;;;2.80;80.78;92135.97;2027842;70;20152;-71
2024/04/23 04:48:09;;;;;;;12.88;9.60;;;;;;;3.07;80.62;92132.50;2026896;70;20237;-71
2024/04/23 04:50:35;;;;;;;11.82;8.65;;;;;;;3.23;78.95;92141.38;2028261;70;20168;-71
2024/04/23 04:53:00;;;;;;;12.07;8.98;;;;;;;2.88;81.49;92137.91;2024478;70;20241;-70
2024/04/23 04:55:30;;;;;;;12.55;9.30;;;;;;;2.72;81.33;92131.81;2028033;70;20156;-71
2024/04/23 04:57:56;;;;;;;12.00;9.20;;;;;;;3.19;79.99;92135.47;2027984;70;20148;-70
2024/04/23 05:00:21;;;;;;;13.90;9.52;;;;;;;2.99;80.48;92131.84;2024479;70;20244;-69
2024/04/23 05:02:47;;;;;;;11.60;8.82;;;;;;;2.91;80.90;92136.78;2028007;70;20149;-70
2024/04/23 05:05:13;;;;;;;13.55;9.80;;;;;;;2.59;82.87;92140.47;2027904;70;20153;-70
2024/04/23 05:07:39;;;;;;;12.35;8.70;;;;;;;3.17;80.45;92135.34;2027953;70;20152;-70
2024/04/23 05:10:05;;;;;;;12.15;9.18;;;;;;;3.18;80.55;92134.75;2028056;70;20528;-74
2024/04/23 05:12:31;;;;;;;12.07;8.77;;;;;;;3.23;79.50;92128.19;2028129;70;20164;-73
2024/04/23 05:14:56;;;;;;;12.82;9.52;;;;;;;2.97;80.78;92135.19;2027923;70;20145;-73
2024/04/23 05:17:22;;;;;;;12.68;8.90;;;;;;;2.53;82.44;92149.06;2027866;70;20586;-72
2024/04/23 05:19:48;;;;;;;15.00;9.85;;;;;;;2.80;82.41;92135.25;2027703;70;20210;-70
2024/04/23 05:22:14;;;;;;;12.93;9.38;;;;;;;2.26;83.32;92132.31;2027963;70;20160;-71
2024/04/23 05:24:39;;;;;;;11.93;8.65;;;;;;;2.98;82.41;92141.50;2028055;70;20164;-72
2024/04/23 05:27:05;;;;;;;14.13;8.73;;;;;;;3.05;81.17;92135.09;2024435;70;20196;-70
2024/04/23 05:29:30;;;;;;;11.68;8.40;;;;;;;3.28;79.74;92132.03;2027898;70;20169;-72
2024/04/23 05:34:40;;;;;;;14.27;8.82;;;;;;;2.78;82.97;92132.28;2028036;70;20619;-73
2024/04/23 05:37:07;;;;;;;12.55;8.77;;;;;;;3.04;81.33;92136.44;2027478;70;20211;-70
2024/04/23 05:39:33;;;;;;;12.73;8.98;;;;;;;2.70;81.39;92139.97;2028402;70;20164;-71
2024/04/23 05:41:58;;;;;;;12.38;8.80;;;;;;;2.78;81.81;92130.25;2025007;70;20227;-70
2024/04/23 05:44:24;;;;;;;14.00;9.13;;;;;;;3.20;80.98;92126.56;2028572;70;20168;-70
2024/04/23 05:46:50;;;;;;;13.00;9.32;;;;;;;2.90;80.40;92133.25;2028472;70;20153;-71
2024/04/23 05:49:53;;;;;;;13.48;9.20;;;;;;;2.50;83.04;92133.53;2028651;70;20148;-73
2024/04/23 05:53:15;;;;;;;12.00;8.45;;;;;;;2.92;81.84;92138.97;2028591;70;20299;-73
2024/04/23 05:55:59;;;;;;;12.00;8.73;;;;;;;3.06;81.35;92142.13;2028515;70;20573;-72
2024/04/23 05:58:25;;;;;;;11.90;8.70;;;;;;;3.30;80.70;92146.09;2028511;70;20216;-69
2024/04/23 06:00:51;;;;;;;11.93;8.38;;;;;;;3.53;79.38;92145.78;2028487;70;20164;-72
2024/04/23 06:03:16;;;;;;;11.70;8.70;;;;;;;3.81;78.90;92158.34;2028080;70;20133;-73
2024/04/23 06:05:42;;;;;;;11.15;8.25;;;;;;;3.83;78.20;92155.72;2028422;70;20641;-72
2024/04/23 06:08:09;;;;;;;12.82;8.50;;;;;;;3.26;79.21;92163.22;2024855;70;20321;-69
2024/04/23 06:10:35;;;;;;;11.75;8.60;;;;;;;3.68;78.90;92155.94;2025021;70;20149;-70
2024/04/23 06:13:00;;;;;;;11.60;8.40;;;;;;;3.83;78.21;92153.66;2028520;70;20598;-70
2024/04/23 06:15:26;;;;;;;10.13;7.70;;;;;;;3.80;77.45;92162.44;2028497;70;20152;-69
2024/04/23 06:17:51;;;;;;;10.27;7.95;;;;;;;3.61;78.30;92156.78;2028423;70;20176;-69
2024/04/23 06:20:17;;;;;;;10.50;7.90;;;;;;;3.27;79.66;92153.53;2028369;70;20192;-69
2024/04/23 06:22:48;;;;;;;11.50;8.07;;;;;;;3.69;78.94;92149.06;2028511;70;20164;-69
2024/04/23 06:25:14;;;;;;;11.15;8.38;;;;;;;3.96;77.78;92160.16;2028494;70;20268;-69
2024/04/23 06:27:40;;;;;;;10.55;8.00;;;;;;;3.80;77.82;92152.06;2028570;70;20145;-69
2024/04/23 06:30:11;;;;;;;11.02;7.80;;;;;;;3.99;77.04;92151.38;2028430;70;20129;-69
2024/04/23 06:32:38;;;;;;;11.65;8.20;;;;;;;3.76;78.06;92153.78;2028583;70;20521;-68
2024/04/23 06:35:04;;;;;;;10.63;7.20;;;;;;;3.80;77.45;92142.94;2028589;70;20165;-69
2024/04/23 06:37:29;;;;;;;10.30;7.43;;;;;;;4.07;77.09;92151.97;2028130;70;20499;-69
2024/04/23 06:39:55;;;;;;;10.90;7.25;;;;;;;4.37;76.34;92155.56;2028332;70;20562;-69
2024/04/23 06:42:21;;;;;;;9.55;7.10;;;;;;;3.71;77.98;92147.19;2028509;70;20184;-68
2024/04/23 06:44:47;;;;;;;10.50;7.65;;;;;;;3.92;77.16;92155.00;2028284;70;20147;-68
2024/04/23 06:47:13;;;;;;;9.10;7.15;;;;;;;4.40;75.74;92148.84;2027877;70;20174;-70
2024/04/23 06:49:40;;;;;;;10.38;7.82;;;;;;;4.20;75.69;92150.09;2028268;70;20666;-70
2024/04/23 06:52:08;;;;;;;9.38;7.00;;;;;;;4.57;74.89;92150.75;2028154;70;20228;-71
2024/04/23 06:54:34;;;;;;;8.32;6.47;;;;;;;4.33;74.48;92147.63;2028357;70;20285;-71
2024/04/23 06:57:00;;;;;;;8.85;6.90;;;;;;;4.16;75.16;92139.38;2028388;70;20221;-71
2024/04/23 06:59:25;;;;;;;8.93;6.80;;;;;;;4.13;76.27;92145.41;2028480;70;20160;-69
2024/04/23 07:01:51;;;;;;;10.30;7.05;;;;;;;4.34;76.31;92146.31;2024774;70;20152;-72
2024/04/23 07:04:17;;;;;;;9.20;6.75;;;;;;;4.39;74.97;92147.34;2028369;70;20181;-72
2024/04/23 07:06:43;;;;;;;8.85;6.40;;;;;;;4.19;75.57;92145.84;2028500;70;20551;-74
2024/04/23 07:09:10;;;;;;;7.53;5.90;;;;;;;4.07;75.74;92142.88;2024680;70;20149;-74
2024/04/23 07:11:37;;;;;;;7.45;6.13;;;;;;;4.60;73.96;92146.81;2028250;70;20240;-72
2024/04/23 07:14:03;;;;;;;8.00;6.32;;;;;;;4.79;73.55;92146.81;2028254;70;20212;-72
2024/04/23 07:16:32;;;;;;;8.07;6.03;;;;;;;4.90;73.47;92147.53;2028173;70;20180;-72
2024/04/23 07:18:57;;;;;;;9.82;6.28;;;;;;;5.12;72.73;92140.75;2024757;70;20155;-71
2024/04/23 07:21:24;;;;;;;11.45;6.00;;;;;;;5.31;72.74;92140.75;2028430;70;20148;-71
2024/04/23 07:23:50;;;;;;;7.80;6.07;;;;;;;5.35;72.52;92141.00;2028310;70;20225;-71
2024/04/23 07:26:16;;;;;;;8.02;6.10;;;;;;;5.45;71.51;92135.44;2028118;70;20225;-75
2024/04/23 07:28:41;;;;;;;7.47;5.75;;;;;;;5.61;70.51;92130.97;2028286;70;20143;-76
2024/04/23 07:31:07;;;;;;;9.70;6.50;;;;;;;5.69;71.74;92133.59;2024741;70;20144;-74
2024/04/23 07:33:32;;;;;;;10.00;6.88;;;;;;;5.83;70.27;92140.16;2028368;70;20153;-74
2024/04/23 07:35:58;;;;;;;8.63;6.22;;;;;;;5.99;70.54;92139.81;2028461;70;20213;-70
2024/04/23 07:38:23;;;;;;;6.40;5.32;;;;;;;6.08;70.00;92136.97;2028454;70;20151;-75
2024/04/23 07:40:50;;;;;;;6.55;4.18;;;;;;;5.85;69.32;92125.59;2028131;70;20184;-76
2024/04/23 07:43:16;;;;;;;5.20;4.20;;;;;;;5.78;68.90;92138.41;2024776;70;20153;-72
2024/04/23 07:45:42;;;;;;;4.68;3.90;;;;;;;5.82;69.39;92135.19;2028340;70;20229;-71
2024/04/23 07:48:07;;;;;;;5.68;3.92;;;;;;;6.05;68.14;92140.25;2028375;70;20148;-70
2024/04/23 07:50:33;;;;;;;5.80;3.47;;;;;;;6.22;67.88;92126.03;2028369;70;20206;-69
2024/04/23 07:53:05;;;;;;;3.28;2.78;;;;;;;6.44;67.45;92126.78;2028198;70;20160;-71
2024/04/23 07:55:31;;;;;;;4.40;3.58;;;;;;;5.53;69.82;92126.88;2028265;70;20161;-73
2024/04/23 07:57:57;;;;;;;4.40;3.55;;;;;;;6.01;69.09;92123.94;2028135;70;20171;-73
2024/04/23 08:00:24;;;;;;;3.08;2.78;;;;;;;6.33;66.80;92125.38;2028274;70;20164;-71
2024/04/23 08:02:56;;;;;;;3.00;2.50;;;;;;;6.75;65.38;92121.13;2028537;70;20153;-71
2024/04/23 08:05:22;;;;;;;4.40;3.40;;;;;;;6.37;65.78;92113.75;2028309;70;20509;-69
2024/04/23 08:07:48;;;;;;;3.97;3.20;;;;;;;6.79;64.95;92124.19;2024885;70;20160;-70
2024/04/23 08:10:17;;;;;;;2.85;2.50;;;;;;;6.97;65.56;92123.91;2028363;70;20157;-71
2024/04/23 08:12:47;;;;;;;3.15;2.38;;;;;;;7.17;65.25;92122.41;2028288;70;20163;-70
2024/04/23 08:15:14;;;;;;;2.00;1.80;;;;;;;6.97;64.15;92093.88;2028169;70;20164;-75
2024/04/23 08:17:42;;;;;;;2.28;1.80;;;;;;;7.30;65.34;92121.13;2028091;70;20221;-71
2024/04/23 08:20:08;;;;;;;2.40;2.00;;;;;;;7.35;64.59;92112.34;2028528;70;20181;-74
2024/04/23 08:22:34;;;;;;;2.17;1.98;;;;;;;7.38;64.83;92116.03;2027442;70;20151;-72
2024/04/23 08:25:00;;;;;;;4.10;2.58;;;;;;;7.36;63.83;92110.28;2028332;70;20220;-70
2024/04/23 08:27:25;;;;;;;2.55;2.13;;;;;;;7.35;63.66;92097.63;2028421;70;20628;-71
2024/04/23 08:29:51;;;;;;;2.95;2.00;;;;;;;7.68;63.73;92111.56;2024808;70;20156;-71
2024/04/23 08:32:16;;;;;;;2.13;1.92;;;;;;;7.75;63.47;92101.50;2028133;70;20141;-71
2024/04/23 08:34:42;;;;;;;3.28;2.03;;;;;;;7.73;63.24;92092.94;2027934;70;20667;-71
2024/04/23 08:37:08;;;;;;;4.47;3.00;;;;;;;7.35;62.89;92103.22;2028236;70;20149;-72
2024/04/23 08:39:34;;;;;;;3.97;2.72;;;;;;;7.01;63.87;92101.78;2024904;70;20167;-72
2024/04/23 08:42:09;;;;;;;1.92;1.80;;;;;;;6.80;63.87;92102.53;2028385;70;20137;-70
2024/04/23 08:44:39;;;;;;;2.08;1.88;;;;;;;6.32;65.16;92101.56;2028351;70;20195;-70
2024/04/23 08:47:07;;;;;;;1.77;1.67;;;;;;;6.81;63.89;92101.22;2024528;70;20182;-75
2024/04/23 08:49:34;;;;;;;2.05;1.70;;;;;;;6.54;64.63;92096.69;2028178;70;20137;-74
2024/04/23 08:51:59;;;;;;;1.90;1.65;;;;;;;6.63;63.67;92100.75;2028065;70;20240;-73
2024/04/23 08:54:25;;;;;;;3.25;1.77;;;;;;;6.62;64.35;92082.50;2028078;70;20153;-73
2024/04/23 08:56:52;;;;;;;1.70;1.55;;;;;;;6.41;63.81;92100.00;2028016;70;20267;-74
2024/04/23 08:59:18;;;;;;;2.13;1.92;;;;;;;5.92;64.21;92087.66;2028218;70;20235;-75
2024/04/23 09:01:57;;;;;;;1.75;1.63;;;;;;;5.98;64.18;92094.38;2027835;70;20144;-71
2024/04/23 09:04:23;;;;;;;1.67;1.48;;;;;;;5.71;63.12;92082.72;2028026;70;20152;-74
2024/04/23 09:06:50;;;;;;;1.70;1.60;;;;;;;6.32;63.20;92093.19;2028116;70;20241;-70
2024/04/23 09:09:20;;;;;;;2.20;1.83;;;;;;;6.49;62.62;92078.19;2028241;70;20168;-70
2024/04/23 09:11:48;;;;;;;2.50;1.90;;;;;;;6.94;61.71;92086.66;2028384;70;20348;-71
2024/04/23 09:14:13;;;;;;;2.50;2.25;;;;;;;7.52;60.80;92086.09;2024924;70;20160;-71
2024/04/23 09:16:39;;;;;;;3.00;2.03;;;;;;;7.62;59.49;92083.91;2028381;70;20156;-72
2024/04/23 09:19:04;;;;;;;8.63;4.82;;;;;;;7.16;60.68;92069.84;2028690;70;20157;-71
2024/04/23 09:21:30;;;;;;;3.92;1.90;;;;;;;7.09;61.17;92075.03;2028500;70;20167;-74
2024/04/23 09:24:04;;;;;;;1.88;1.52;;;;;;;7.24;61.67;92081.53;2028401;70;20209;-72
2024/04/23 09:26:31;;;;;;;5.77;3.43;;;;;;;7.80;59.14;92075.19;2028459;70;20616;-77
2024/04/23 09:28:57;;;;;;;5.25;3.35;;;;;;;8.43;56.78;92075.38;2028641;70;20243;-73
2024/04/23 09:31:24;;;;;;;3.78;1.95;;;;;;;7.86;54.91;92076.25;2028365;70;20160;-77
2024/04/23 09:33:57;;;;;;;3.75;2.20;;;;;;;8.23;52.94;92067.22;2028649;70;20275;-77
2024/04/23 09:36:23;;;;;;;;;;;;;;;7.77;53.20;92068.72;2028829;70;20259;-74
2024/04/23 09:38:52;;;;;;;4.60;2.60;;;;;;;8.37;54.33;92068.09;2028726;70;20063;-72
2024/04/23 09:41:20;;;;;;;2.75;1.80;;;;;;;7.60;54.82;92060.66;2028958;70;20168;-73
2024/04/23 09:43:54;;;;;;;2.45;1.75;;;;;;;8.69;53.99;92056.56;2028947;70;20269;-77
2024/04/23 09:46:21;;;;;;;0.90;0.90;;;;;;;8.19;51.67;92057.84;2028425;70;20256;-76
2024/04/23 09:48:51;;;;;;;0.85;0.85;;;;;;;9.13;53.01;92053.47;2028733;70;20142;-77
2024/04/23 09:51:20;;;;;;;1.00;0.93;;;;;;;9.37;50.92;92053.34;2028701;70;20137;-72
2024/04/23 09:53:49;;;;;;;1.30;1.20;;;;;;;9.68;50.45;92047.28;2024790;70;20227;-71
2024/04/23 09:56:19;;;;;;;0.88;0.85;;;;;;;10.55;50.84;92056.72;2025125;70;20176;-72
2024/04/23 09:58:46;;;;;;;1.38;1.20;;;;;;;10.72;52.34;92043.44;2028531;70;20187;-71
2024/04/23 10:01:15;;;;;;;1.30;1.10;;;;;;;10.89;49.87;92049.25;2024891;70;20155;-71
2024/04/23 10:03:42;;;;;;;1.63;1.20;;;;;;;10.04;51.09;92044.94;2028645;70;20160;-73
2024/04/23 10:06:18;;;;;;;2.03;1.20;;;;;;;10.07;49.67;92050.03;2025161;70;20171;-78
2024/04/23 10:08:52;;;;;;;1.15;1.00;;;;;;;9.86;51.09;92045.44;2028803;70;20151;-73
2024/04/23 10:11:35;;;;;;;0.90;0.90;;;;;;;10.59;50.16;92042.13;2028688;70;20209;-75
2024/04/23 10:14:17;;;;;;;1.55;1.25;;;;;;;9.73;51.17;92036.97;2028706;70;20164;-73
2024/04/23 10:17:06;;;;;;;1.48;1.30;;;;;;;9.12;52.39;92028.81;2028630;70;20169;-77
2024/04/23 10:19:34;;;;;;;1.80;1.45;;;;;;;8.48;52.94;92026.63;2028481;70;20148;-74
2024/04/23 10:22:01;;;;;;;2.47;1.73;;;;;;;9.24;52.53;92034.34;2028527;70;20152;-75
2024/04/23 10:24:26;;;;;;;2.35;1.90;;;;;;;8.55;54.05;92029.16;2028625;70;20156;-71
2024/04/23 10:26:53;;;;;;;2.63;1.90;;;;;;;8.63;54.17;92032.41;2028464;70;20534;-74
2024/04/23 10:29:19;;;;;;;2.63;2.00;;;;;;;8.93;53.23;92037.53;2028217;70;20152;-73
2024/04/23 10:31:45;;;;;;;2.85;1.90;;;;;;;9.52;53.62;92044.31;2022244;70;20171;-76
2024/04/23 10:34:15;;;;;;;1.92;1.73;;;;;;;9.02;53.36;92028.97;2028397;70;20157;-74
2024/04/23 10:36:42;;;;;;;2.90;1.70;;;;;;;8.73;52.86;92042.75;2028512;70;20216;-74
2024/04/23 10:39:11;;;;;;;3.70;2.00;;;;;;;8.56;53.46;92038.28;2028453;70;20145;-73
2024/04/23 10:41:40;;;;;;;2.75;2.10;;;;;;;9.21;53.68;92027.91;2024996;70;20149;-74
2024/04/23 10:44:13;;;;;;;2.30;1.92;;;;;;;8.97;53.00;92037.78;2028528;70;20236;-74
2024/04/23 10:46:40;;;;;;;2.65;1.80;;;;;;;9.36;52.19;92037.84;2028485;70;20590;-72
2024/04/23 10:49:15;;;;;;;1.70;1.60;;;;;;;10.23;50.43;92024.84;2028345;70;20232;-76
2024/04/23 10:51:46;;;;;;;1.85;1.52;;;;;;;12.93;47.88;92033.06;2028411;70;20233;-76
2024/04/23 10:54:19;;;;;;;1.63;1.50;;;;;;;11.29;48.84;92034.94;2025219;70;20163;-72
2024/04/23 10:56:54;;;;;;;2.38;1.42;;;;;;;11.55;47.87;92008.00;2028513;70;20159;-72
2024/04/23 10:59:21;;;;;;;2.60;1.50;;;;;;;12.01;47.01;92019.25;2028674;70;20239;-72
2024/04/23 11:01:50;;;;;;;1.55;1.30;;;;;;;11.33;47.20;92023.88;2028331;70;20160;-72
2024/04/23 11:04:15;;;;;;;1.50;1.40;;;;;;;11.56;47.69;92029.19;2028467;70;20180;-74
2024/04/23 11:06:41;;;;;;;1.40;1.30;;;;;;;11.37;47.39;92009.97;2028506;70;20171;-74
2024/04/23 11:09:33;;;;;;;1.48;1.30;;;;;;;10.40;47.54;92015.91;2028403;70;20165;-75
2024/04/23 11:11:59;;;;;;;1.50;1.30;;;;;;;10.77;48.91;92005.72;2028005;70;20153;-74
2024/04/23 11:14:35;;;;;;;1.85;1.30;;;;;;;11.23;47.50;92007.22;2028442;70;20259;-71
2024/04/23 11:17:02;;;;;;;1.65;1.30;;;;;;;11.40;46.86;91989.69;2028438;70;20245;-71
2024/04/23 11:19:36;;;;;;;1.70;1.60;;;;;;;11.06;45.21;92002.91;2028141;70;20153;-71
2024/04/23 11:22:10;;;;;;;1.35;1.25;;;;;;;10.99;46.42;92006.78;2028293;70;20598;-74
2024/04/23 11:24:53;;;;;;;1.30;1.20;;;;;;;12.29;46.98;91995.09;2024626;70;20316;-73
2024/04/23 11:27:19;;;;;;;1.40;1.30;;;;;;;12.11;45.58;91994.28;2028150;70;20255;-73
2024/04/23 11:29:46;;;;;;;3.47;1.63;;;;;;;11.31;45.36;91987.13;2028362;70;20538;-73
2024/04/23 11:32:13;;;;;;;2.15;1.20;;;;;;;13.50;44.60;91994.34;2028190;70;20236;-71
2024/04/23 11:34:40;;;;;;;1.33;1.20;;;;;;;15.73;39.57;92000.69;2028210;70;20276;-71
2024/04/23 11:37:06;;;;;;;1.98;1.27;;;;;;;13.30;40.38;91995.03;2028452;70;20553;-77
2024/04/23 11:39:32;;;;;;;1.60;1.40;;;;;;;13.30;41.71;91983.72;2028298;70;20112;-71
2024/04/23 11:41:58;;;;;;;1.30;1.20;;;;;;;13.64;40.04;91987.13;2028122;70;20151;-73
2024/04/23 11:44:27;;;;;;;1.10;1.00;;;;;;;13.65;41.17;91977.28;2028223;70;20579;-72